createdAt,value
2023-04-02T00:00:10.640Z,95327.69
2023-04-02T00:03:15.439Z,95323.88
2023-04-02T00:06:30.550Z,95334.69
2023-04-02T00:09:35.946Z,95330.50
2023-04-02T00:12:37.625Z,95331.69
2023-04-02T00:15:41.522Z,95339.84
2023-04-02T00:18:50.234Z,95344.00
2023-04-02T00:21:53.137Z,95342.81
2023-04-02T00:24:59.071Z,95344.84
2023-04-02T00:28:00.834Z,95353.31
2023-04-02T00:31:05.472Z,95347.66
2023-04-02T00:34:11.528Z,95350.16
2023-04-02T00:37:28.438Z,95356.28
2023-04-02T00:40:34.213Z,95363.47
2023-04-02T00:43:39.741Z,95363.47
2023-04-02T00:46:49.742Z,95361.78
2023-04-02T00:50:01.078Z,95363.47
2023-04-02T00:53:16.785Z,95360.97
2023-04-02T00:56:28.463Z,95366.13
2023-04-02T00:59:36.879Z,95370.75
2023-04-02T01:02:40.906Z,95372.91
2023-04-02T01:05:50.246Z,95372.91
2023-04-02T01:09:16.796Z,95375.72
2023-04-02T01:12:39.656Z,95375.91
2023-04-02T01:16:00.917Z,95370.59
2023-04-02T01:19:31.802Z,95376.75
2023-04-02T01:23:04.966Z,95383.06
2023-04-02T01:26:31.333Z,95383.72
2023-04-02T01:29:41.715Z,95390.22
2023-04-02T01:32:45.618Z,95396.00
2023-04-02T01:36:01.778Z,95379.72
2023-04-02T01:39:45.862Z,95397.00
2023-04-02T01:42:58.830Z,95400.69
2023-04-02T01:46:26.026Z,95392.88
2023-04-02T01:49:29.037Z,95402.66
2023-04-02T01:52:46.348Z,95396.66
2023-04-02T01:55:55.102Z,95397.81
2023-04-02T01:58:58.809Z,95407.47
2023-04-02T02:02:12.405Z,95406.63
2023-04-02T02:05:19.114Z,95404.31
2023-04-02T02:08:40.633Z,95409.63
2023-04-02T02:11:44.668Z,95407.97
2023-04-02T02:14:52.128Z,95416.09
2023-04-02T02:18:02.524Z,95414.56
2023-04-02T02:21:07.157Z,95421.56
2023-04-02T02:24:36.163Z,95417.22
2023-04-02T02:27:43.842Z,95415.75
2023-04-02T02:30:52.796Z,95419.25
2023-04-02T02:34:02.820Z,95422.06
2023-04-02T02:37:15.130Z,95424.88
2023-04-02T02:40:25.708Z,95426.69
2023-04-02T02:43:30.664Z,95433.00
2023-04-02T02:46:35.500Z,95431.50
2023-04-02T02:49:43.474Z,95440.47
2023-04-02T02:52:51.532Z,95435.16
2023-04-02T02:55:58.002Z,95438.31
2023-04-02T02:59:07.315Z,95444.44
2023-04-02T03:02:16.283Z,95444.78
2023-04-02T03:05:23.841Z,95443.94
2023-04-02T03:08:46.797Z,95450.25
2023-04-02T03:12:16.341Z,95455.56
2023-04-02T03:15:22.657Z,95458.91
2023-04-02T03:18:32.054Z,95458.06
2023-04-02T03:21:48.735Z,95467.16
2023-04-02T03:25:13.869Z,95466.34
2023-04-02T03:28:22.975Z,95472.50
2023-04-02T03:31:38.435Z,95472.00
2023-04-02T03:35:01.553Z,95482.63
2023-04-02T03:38:19.588Z,95485.44
2023-04-02T03:41:41.622Z,95485.44
2023-04-02T03:45:12.680Z,95482.91
2023-04-02T03:48:31.433Z,95484.91
2023-04-02T03:51:57.233Z,95490.22
2023-04-02T03:55:10.696Z,95481.59
2023-04-02T03:58:24.311Z,95492.38
2023-04-02T04:01:35.423Z,95496.84
2023-04-02T04:04:41.952Z,95499.50
2023-04-02T04:07:44.729Z,95506.78
2023-04-02T04:10:52.206Z,95497.97
2023-04-02T04:14:17.344Z,95509.59
2023-04-02T04:17:51.263Z,95509.78
2023-04-02T04:21:01.004Z,95517.75
2023-04-02T04:24:21.731Z,95518.88
2023-04-02T04:27:36.103Z,95517.22
2023-04-02T04:31:00.107Z,95524.34
2023-04-02T04:34:18.452Z,95530.84
2023-04-02T04:37:29.134Z,95528.31
2023-04-02T04:40:37.721Z,95542.59
2023-04-02T04:43:56.182Z,95551.53
2023-04-02T04:47:10.736Z,95545.72
2023-04-02T04:50:31.161Z,95549.38
2023-04-02T04:53:33.293Z,95552.03
2023-04-02T04:56:37.337Z,95548.53
2023-04-02T04:59:52.605Z,95551.47
2023-04-02T05:03:06.176Z,95558.94
2023-04-02T05:06:36.980Z,95566.06
2023-04-02T05:09:55.409Z,95571.69
2023-04-02T05:13:28.568Z,95579.66
2023-04-02T05:16:45.180Z,95576.47
2023-04-02T05:19:53.857Z,95571.47
2023-04-02T05:23:15.467Z,95575.44
2023-04-02T05:26:39.028Z,95580.19
2023-04-02T05:29:47.189Z,95589.84
2023-04-02T05:32:59.784Z,95591.97
2023-04-02T05:36:06.575Z,95592.28
2023-04-02T05:39:21.854Z,95607.50
2023-04-02T05:42:34.555Z,95608.66
2023-04-02T05:45:51.591Z,95611.97
2023-04-02T05:48:58.747Z,95614.13
2023-04-02T05:52:03.576Z,95621.09
2023-04-02T05:55:14.794Z,95624.75
2023-04-02T05:58:36.220Z,95629.22
2023-04-02T06:02:03.601Z,95630.19
2023-04-02T06:05:17.403Z,95630.66
2023-04-02T06:08:25.702Z,95623.81
2023-04-02T06:11:32.800Z,95633.97
2023-04-02T06:14:37.232Z,95637.47
2023-04-02T06:17:47.535Z,95635.50
2023-04-02T06:20:49.690Z,95645.13
2023-04-02T06:24:02.742Z,95653.25
2023-04-02T06:27:10.197Z,95658.09
2023-04-02T06:30:27.531Z,95660.59
2023-04-02T06:33:29.280Z,95664.66
2023-04-02T06:36:32.764Z,95662.84
2023-04-02T06:39:38.998Z,95663.34
2023-04-02T06:42:49.665Z,95671.03
2023-04-02T06:46:29.999Z,95672.22
2023-04-02T06:49:51.091Z,95690.34
2023-04-02T06:52:55.761Z,95685.88
2023-04-02T06:56:22.231Z,95693.25
2023-04-02T06:59:25.036Z,95698.25
2023-04-02T07:02:37.264Z,95695.47
2023-04-02T07:05:43.037Z,95694.84
2023-04-02T07:08:45.697Z,95702.22
2023-04-02T07:11:54.623Z,95699.25
2023-04-02T07:14:56.523Z,95713.06
2023-04-02T07:18:02.983Z,95703.13
2023-04-02T07:21:08.058Z,95715.94
2023-04-02T07:24:12.939Z,95718.81
2023-04-02T07:27:17.895Z,95723.84
2023-04-02T07:30:22.529Z,95724.06
2023-04-02T07:33:32.539Z,95735.75
2023-04-02T07:36:36.413Z,95734.97
2023-04-02T07:39:46.706Z,95731.56
2023-04-02T07:42:52.396Z,95739.59
2023-04-02T07:45:58.123Z,95742.47
2023-04-02T07:49:03.225Z,95750.81
2023-04-02T07:52:11.298Z,95745.69
2023-04-02T07:55:15.150Z,95753.59
2023-04-02T07:58:20.261Z,95750.78
2023-04-02T08:01:29.975Z,95761.28
2023-04-02T08:04:31.677Z,95767.00
2023-04-02T08:07:34.068Z,95775.66
2023-04-02T08:10:39.100Z,95769.69
2023-04-02T08:13:41.847Z,95780.22
2023-04-02T08:16:56.653Z,95779.44
2023-04-02T08:20:04.311Z,95775.50
2023-04-02T08:23:20.926Z,95774.88
2023-04-02T08:26:25.505Z,95774.09
2023-04-02T08:29:37.168Z,95782.63
2023-04-02T08:32:42.201Z,95784.97
2023-04-02T08:35:46.336Z,95786.69
2023-04-02T08:38:52.263Z,95783.22
2023-04-02T08:42:01.595Z,95787.59
2023-04-02T08:45:31.043Z,95788.94
2023-04-02T08:52:01.669Z,95790.97
2023-04-02T08:55:43.545Z,95797.00
2023-04-02T08:58:57.052Z,95802.84
2023-04-02T09:02:26.054Z,95800.34
2023-04-02T09:05:35.674Z,95806.69
2023-04-02T09:08:41.907Z,95805.53
2023-04-02T09:12:05.004Z,95810.56
2023-04-02T09:15:17.591Z,95811.56
2023-04-02T09:18:23.386Z,95801.06
2023-04-02T09:22:06.454Z,95811.91
2023-04-02T09:25:19.420Z,95813.72
2023-04-02T09:28:27.347Z,95827.38
2023-04-02T09:32:19.548Z,95830.06
2023-04-02T09:35:27.072Z,95827.75
2023-04-02T09:38:32.731Z,95833.72
2023-04-02T09:44:56.027Z,95835.75
2023-04-02T09:48:01.144Z,95841.75
2023-04-02T09:51:25.304Z,95850.56
2023-04-02T09:54:30.342Z,95836.88
2023-04-02T09:57:35.579Z,95843.69
2023-04-02T10:00:41.861Z,95862.22
2023-04-02T10:03:46.596Z,95867.03
2023-04-02T10:06:58.247Z,95864.38
2023-04-02T10:10:28.439Z,95867.84
2023-04-02T10:14:10.838Z,95874.53
2023-04-02T10:17:58.502Z,95874.38
2023-04-02T10:21:10.522Z,95870.22
2023-04-02T10:24:23.581Z,95872.91
2023-04-02T10:27:56.911Z,95876.06
2023-04-02T10:31:17.760Z,95882.41
2023-04-02T10:34:52.645Z,95885.25
2023-04-02T10:38:24.092Z,95880.63
2023-04-02T10:41:55.986Z,95874.78
2023-04-02T10:45:22.426Z,95882.81
2023-04-02T10:49:11.921Z,95884.16
2023-04-02T10:56:11.772Z,95895.50
2023-04-02T10:59:33.532Z,95888.34
2023-04-02T11:03:25.161Z,95880.66
2023-04-02T11:06:58.102Z,95886.50
2023-04-02T11:10:09.701Z,95888.81
2023-04-02T11:13:42.848Z,95891.63
2023-04-02T11:16:48.182Z,95887.59
2023-04-02T11:19:53.812Z,95896.44
2023-04-02T11:23:13.997Z,95889.94
2023-04-02T11:26:56.502Z,95898.13
2023-04-02T11:30:23.143Z,95896.97
2023-04-02T11:33:54.108Z,95900.97
2023-04-02T11:36:58.812Z,95907.50
2023-04-02T11:40:03.884Z,95911.31
2023-04-02T11:43:35.286Z,95908.09
2023-04-02T11:46:43.389Z,95913.28
2023-04-02T11:50:07.387Z,95918.31
2023-04-02T11:53:19.844Z,95918.78
2023-04-02T11:57:23.533Z,95917.75
2023-04-02T12:01:06.996Z,95922.25
2023-04-02T12:08:31.728Z,95921.06
2023-04-02T12:11:41.498Z,95926.78
2023-04-02T12:14:56.114Z,95931.63
2023-04-02T12:18:22.648Z,95933.78
2023-04-02T12:21:31.413Z,95927.75
2023-04-02T12:24:43.312Z,95925.38
2023-04-02T12:27:46.585Z,95924.38
2023-04-02T12:30:59.134Z,95922.00
2023-04-02T12:34:12.199Z,95926.00
2023-04-02T12:37:29.622Z,95929.00
2023-04-02T12:40:40.134Z,95935.84
2023-04-02T12:43:57.382Z,95939.66
2023-04-02T12:47:11.744Z,95944.03
2023-04-02T12:50:17.976Z,95943.22
2023-04-02T12:53:32.677Z,95958.47
2023-04-02T12:56:35.925Z,95964.19
2023-04-02T13:00:03.363Z,95972.78
2023-04-02T13:03:34.424Z,95969.31
2023-04-02T13:06:39.580Z,95968.47
2023-04-02T13:09:46.746Z,95971.97
2023-04-02T13:13:00.281Z,95976.69
2023-04-02T13:16:25.843Z,95968.66
2023-04-02T13:23:06.820Z,95968.00
2023-04-02T13:26:28.211Z,95974.69
2023-04-02T13:29:38.736Z,95970.34
2023-04-02T13:36:02.132Z,95975.69
2023-04-02T13:39:09.004Z,95978.19
2023-04-02T13:42:13.459Z,95969.66
2023-04-02T13:45:25.985Z,95983.03
2023-04-02T13:48:31.678Z,95979.34
2023-04-02T13:51:41.785Z,95966.63
2023-04-02T13:54:54.656Z,95981.34
2023-04-02T13:58:06.297Z,95974.81
2023-04-02T14:01:17.133Z,95983.50
2023-04-02T14:04:48.701Z,95988.00
2023-04-02T14:08:19.555Z,96012.38
2023-04-02T14:11:35.930Z,96010.09
2023-04-02T14:15:03.692Z,96022.09
2023-04-02T14:18:40.062Z,96028.75
2023-04-02T14:22:12.743Z,96030.69
2023-04-02T14:25:41.694Z,96033.97
2023-04-02T14:29:12.898Z,96044.44
2023-04-02T14:32:23.413Z,96037.19
2023-04-02T14:35:52.951Z,96045.13
2023-04-02T14:39:07.482Z,96048.91
2023-04-02T14:42:26.819Z,96052.22
2023-04-02T14:45:49.175Z,96053.19
2023-04-02T14:49:05.106Z,96049.34
2023-04-02T14:52:23.735Z,96053.47
2023-04-02T14:55:51.450Z,96049.28
2023-04-02T14:59:35.649Z,96055.41
2023-04-02T15:02:56.446Z,96057.53
2023-04-02T15:06:12.992Z,96067.97
2023-04-02T15:09:25.593Z,96073.00
2023-04-02T15:12:40.498Z,96072.16
2023-04-02T15:16:06.738Z,96074.00
2023-04-02T15:19:18.935Z,96081.84
2023-04-02T15:22:32.311Z,96080.03
2023-04-02T15:26:00.791Z,96092.81
2023-04-02T15:29:42.043Z,96098.47
2023-04-02T15:32:44.496Z,96109.28
2023-04-02T15:35:59.488Z,96101.56
2023-04-02T15:39:47.279Z,96103.88
2023-04-02T15:43:24.281Z,96102.81
2023-04-02T15:47:05.056Z,96103.09
2023-04-02T15:50:38.365Z,96100.63
2023-04-02T15:54:21.736Z,96120.94
2023-04-02T15:58:00.145Z,96122.09
2023-04-02T16:01:33.683Z,96125.88
2023-04-02T16:05:16.546Z,96142.19
2023-04-02T16:08:57.575Z,96141.78
2023-04-02T16:12:23.048Z,96137.75
2023-04-02T16:15:39.270Z,96150.38
2023-04-02T16:19:29.573Z,96150.38
2023-04-02T16:22:40.557Z,96167.81
2023-04-02T16:26:18.379Z,96173.06
2023-04-02T16:29:59.189Z,96173.78
2023-04-02T16:33:46.562Z,96179.00
2023-04-02T16:37:29.373Z,96186.44
2023-04-02T16:41:08.497Z,96192.19
2023-04-02T16:45:02.621Z,96199.81
2023-04-02T16:48:57.306Z,96202.50
2023-04-02T16:52:26.815Z,96206.72
2023-04-02T17:00:33.675Z,96213.53
2023-04-02T17:04:19.701Z,96228.09
2023-04-02T17:07:52.029Z,96230.09
2023-04-02T17:11:16.168Z,96236.81
2023-04-02T17:18:08.084Z,96245.06
2023-04-02T17:21:14.643Z,96244.41
2023-04-02T17:24:45.956Z,96261.47
2023-04-02T17:28:03.060Z,96272.38
2023-04-02T17:31:37.337Z,96275.06
2023-04-02T17:34:44.187Z,96289.19
2023-04-02T17:38:07.133Z,96295.31
2023-04-02T17:41:39.622Z,96298.53
2023-04-02T17:45:04.070Z,96295.72
2023-04-02T17:48:48.224Z,96307.50
2023-04-02T17:52:09.322Z,96318.34
2023-04-02T17:55:42.930Z,96320.31
2023-04-02T17:59:22.813Z,96329.25
2023-04-02T18:02:51.576Z,96328.41
2023-04-02T18:06:09.787Z,96340.72
2023-04-02T18:09:37.778Z,96346.19
2023-04-02T18:13:26.575Z,96355.25
2023-04-02T18:16:42.255Z,96360.13
2023-04-02T18:20:17.384Z,96371.16
2023-04-02T18:27:35.393Z,96381.31
2023-04-02T18:31:27.319Z,96386.91
2023-04-02T18:34:58.066Z,96393.59
2023-04-02T18:38:21.709Z,96402.09
2023-04-02T18:41:57.383Z,96413.50
2023-04-02T18:45:24.099Z,96417.91
2023-04-02T18:48:50.266Z,96420.50
2023-04-02T18:52:00.808Z,96423.16
2023-04-02T18:55:19.139Z,96429.19
2023-04-02T18:58:31.496Z,96434.59
2023-04-02T19:01:40.586Z,96440.03
2023-04-02T19:05:07.370Z,96438.63
2023-04-02T19:09:02.272Z,96451.19
2023-04-02T19:12:45.783Z,96455.91
2023-04-02T19:16:18.042Z,96457.00
2023-04-02T19:19:57.502Z,96459.78
2023-04-02T19:27:30.671Z,96475.44
2023-04-02T19:30:55.219Z,96477.50
2023-04-02T19:34:41.292Z,96487.66
2023-04-02T19:37:58.715Z,96497.81
2023-04-02T19:45:01.990Z,96507.09
2023-04-02T19:48:14.562Z,96514.44
2023-04-02T19:51:19.770Z,96509.88
2023-04-02T19:54:25.821Z,96515.47
2023-04-02T19:57:31.922Z,96528.63
2023-04-02T20:00:36.519Z,96534.53
2023-04-02T20:03:42.167Z,96538.63
2023-04-02T20:06:47.108Z,96542.63
2023-04-02T20:09:50.084Z,96544.81
2023-04-02T20:13:01.826Z,96555.28
2023-04-02T20:16:13.802Z,96547.81
2023-04-02T20:19:16.929Z,96559.84
2023-04-02T20:22:21.539Z,96566.72
2023-04-02T20:25:36.168Z,96570.59
2023-04-02T20:28:40.496Z,96575.88
2023-04-02T20:31:43.258Z,96583.81
2023-04-02T20:34:45.577Z,96596.59
2023-04-02T20:37:56.401Z,96596.72
2023-04-02T20:41:00.522Z,96599.22
2023-04-02T20:44:11.854Z,96609.69
2023-04-02T20:47:25.372Z,96611.50
2023-04-02T20:50:29.118Z,96614.53
2023-04-02T20:53:37.521Z,96628.81
2023-04-02T20:56:42.996Z,96629.41
2023-04-02T20:59:44.619Z,96640.34
2023-04-02T21:02:50.404Z,96638.66
2023-04-02T21:05:55.738Z,96647.19
2023-04-02T21:09:15.992Z,96648.50
2023-04-02T21:12:21.577Z,96648.34
2023-04-02T21:15:26.401Z,96650.38
2023-04-02T21:18:37.852Z,96649.16
2023-04-02T21:25:01.965Z,96660.50
2023-04-02T21:28:07.380Z,96665.41
2023-04-02T21:31:33.059Z,96659.47
2023-04-02T21:34:38.504Z,96657.53
2023-04-02T21:37:48.397Z,96677.19
2023-04-02T21:41:01.397Z,96678.50
2023-04-02T21:44:11.620Z,96696.59
2023-04-02T21:47:16.806Z,96693.22
2023-04-02T21:50:22.132Z,96709.31
2023-04-02T21:53:33.141Z,96707.72
2023-04-02T21:56:44.226Z,96708.69
2023-04-02T21:59:48.180Z,96707.31
2023-04-02T22:02:53.576Z,96713.34
2023-04-02T22:06:17.620Z,96723.09
2023-04-02T22:09:26.968Z,96718.84
2023-04-02T22:12:31.667Z,96727.84
2023-04-02T22:15:34.734Z,96733.44
2023-04-02T22:18:41.851Z,96742.56
2023-04-02T22:25:12.249Z,96735.59
2023-04-02T22:28:23.273Z,96745.41
2023-04-02T22:31:35.304Z,96750.06
2023-04-02T22:34:57.466Z,96757.25
2023-04-02T22:41:33.311Z,96751.84
2023-04-02T22:44:37.465Z,96745.84
2023-04-02T22:47:43.055Z,96755.88
2023-04-02T22:50:52.099Z,96743.59
2023-04-02T22:53:57.152Z,96743.59
2023-04-02T22:57:02.055Z,96745.28
2023-04-02T23:00:15.237Z,96746.91
2023-04-02T23:03:20.086Z,96746.38
2023-04-02T23:06:27.134Z,96748.78
2023-04-02T23:09:32.693Z,96751.13
2023-04-02T23:12:36.519Z,96752.69
2023-04-02T23:15:41.633Z,96747.41
2023-04-02T23:19:08.586Z,96745.63
2023-04-02T23:22:13.141Z,96736.75
2023-04-02T23:25:24.257Z,96752.50
2023-04-02T23:28:37.675Z,96749.09
2023-04-02T23:31:39.694Z,96744.78
2023-04-02T23:34:43.711Z,96749.00
2023-04-02T23:37:55.840Z,96738.53
2023-04-02T23:41:00.563Z,96747.50
2023-04-02T23:44:11.775Z,96751.13
2023-04-02T23:47:16.896Z,96742.78
2023-04-02T23:50:20.054Z,96741.19
2023-04-02T23:53:22.429Z,96740.25
2023-04-02T23:56:34.248Z,96742.78
